Time;durP1;ratioP1;P1;durP2;ratioP2;P2;SDS_P1;SDS_P2;PMS_P1;PMS_P2;Temp;Humidity;BMP_temperature;BMP_pressure;BME280_temperature;BME280_humidity;BME280_pressure;Samples;Min_cycle;Max_cycle;Signal;HPM_P1;HPM_P2
2021/11/15 00:00:57;;;;;;;;;;;;;;;;;;2035096;29;1874;-87
2021/11/15 00:01:58;;;;;;;;;;;;;;;;;;2027587;29;1468;-87
2021/11/15 00:03:00;;;;;;;;;;;;;;;;;;2021823;29;2036;-87
2021/11/15 00:04:03;;;;;;;;;;;;;;;;;;2035539;29;1316;-88
2021/11/15 00:05:05;;;;;;;;;;;;;;;;;;2035012;29;1222;-87
2021/11/15 00:06:06;;;;;;;;;;;;;;;;;;2026112;29;1882;-86
2021/11/15 00:07:07;;;;;;;;;;;;;;;;;;2027246;29;1246;-85
2021/11/15 00:08:08;;;;;;;;;;;;;;;;;;2027850;29;1947;-86
2021/11/15 00:09:11;;;;;;;;;;;;;;;;;;2034829;29;1225;-85
2021/11/15 00:10:15;;;;;;;;;;;;;;;;;;2035375;29;814;-85
2021/11/15 00:11:19;;;;;;;;;;;;;;;;;;2027649;29;1510;-85
2021/11/15 00:12:20;;;;;;;;;;;;;;;;;;2019553;29;1218;-85
2021/11/15 00:13:22;;;;;;;;;;;;;;;;;;2028205;29;1842;-85
2021/11/15 00:14:23;;;;;;;;;;;;;;;;;;2035061;29;1218;-85
2021/11/15 00:15:25;;;;;;;;;;;;;;;;;;2035355;29;1331;-85
2021/11/15 00:16:26;;;;;;;;;;;;;;;;;;2038885;29;1976;-85
2021/11/15 00:17:29;;;;;;;;;;;;;;;;;;2042998;29;1296;-85
2021/11/15 00:18:30;;;;;;;;;;;;;;;;;;2037378;29;1306;-85
2021/11/15 00:19:33;;;;;;;;;;;;;;;;;;2027054;29;1254;-85
2021/11/15 00:20:35;;;;;;;;;;;;;;;;;;2027407;29;1306;-85
2021/11/15 00:21:37;;;;;;;;;;;;;;;;;;2035031;29;1925;-85
2021/11/15 00:22:38;;;;;;;;;;;;;;;;;;2035228;29;1338;-86
2021/11/15 00:23:40;;;;;;;;;;;;;;;;;;2027823;29;1967;-85
2021/11/15 00:24:40;;;;;;;;;;;;;;;;;;2027595;29;1242;-87
2021/11/15 00:25:42;;;;;;;;;;;;;;;;;;2035263;29;1324;-85
2021/11/15 00:26:43;;;;;;;;;;;;;;;;;;2027268;29;1992;-87
2021/11/15 00:27:45;;;;;;;;;;;;;;;;;;2027137;29;1919;-88
2021/11/15 00:28:45;;;;;;;;;;;;;;;;;;2043523;29;895;-85
2021/11/15 00:29:47;;;;;;;;;;;;;;;;;;2035077;29;1315;-85
2021/11/15 00:30:48;;;;;;;;;;;;;;;;;;2034927;29;1309;-85
2021/11/15 00:31:50;;;;;;;;;;;;;;;;;;2027443;29;1878;-85
2021/11/15 00:32:51;;;;;;;;;;;;;;;;;;2035794;29;1926;-86
2021/11/15 00:33:53;;;;;;;;;;;;;;;;;;2027042;29;1362;-84
2021/11/15 00:34:56;;;;;;;;;;;;;;;;;;2019464;29;1119;-84
2021/11/15 00:35:58;;;;;;;;;;;;;;;;;;2036358;29;1981;-84
2021/11/15 00:36:59;;;;;;;;;;;;;;;;;;2042822;29;1245;-84
2021/11/15 00:38:00;;;;;;;;;;;;;;;;;;2032462;29;1901;-84
2021/11/15 00:39:02;;;;;;;;;;;;;;;;;;2027165;29;1359;-86
2021/11/15 00:40:04;;;;;;;;;;;;;;;;;;2035206;29;1222;-85
2021/11/15 00:41:05;;;;;;;;;;;;;;;;;;2035121;29;2105;-85
2021/11/15 00:42:07;;;;;;;;;;;;;;;;;;2027235;29;1244;-85
2021/11/15 00:43:08;;;;;;;;;;;;;;;;;;2032607;29;1938;-85
2021/11/15 00:44:09;;;;;;;;;;;;;;;;;;2034800;29;1228;-89
2021/11/15 00:45:11;;;;;;;;;;;;;;;;;;2034858;29;1504;-84
2021/11/15 00:46:13;;;;;;;;;;;;;;;;;;2037569;29;1873;-84
2021/11/15 00:47:14;;;;;;;;;;;;;;;;;;2027060;29;1359;-84
2021/11/15 00:48:15;;;;;;;;;;;;;;;;;;2026537;29;1904;-84
2021/11/15 00:49:16;;;;;;;;;;;;;;;;;;2042722;29;1260;-84
2021/11/15 00:50:20;;;;;;;;;;;;;;;;;;2042835;29;1253;-85
2021/11/15 00:51:21;;;;;;;;;;;;;;;;;;2022973;29;1816;-84
2021/11/15 00:52:23;;;;;;;;;;;;;;;;;;2019622;29;1247;-84
2021/11/15 00:53:23;;;;;;;;;;;;;;;;;;2031747;29;2044;-84
2021/11/15 00:54:25;;;;;;;;;;;;;;;;;;2026894;29;1219;-85
2021/11/15 00:55:27;;;;;;;;;;;;;;;;;;2027327;29;1198;-85
2021/11/15 00:56:29;;;;;;;;;;;;;;;;;;2030414;29;1983;-85
2021/11/15 00:57:29;;;;;;;;;;;;;;;;;;2019613;29;1243;-85
2021/11/15 00:58:31;;;;;;;;;;;;;;;;;;2020871;29;2119;-85
2021/11/15 00:59:32;;;;;;;;;;;;;;;;;;2019256;29;1576;-86
2021/11/15 01:00:37;;;;;;;;;;;;;;;;;;2027450;29;1237;-86
2021/11/15 01:01:38;;;;;;;;;;;;;;;;;;2040663;29;1944;-86
2021/11/15 01:02:40;;;;;;;;;;;;;;;;;;2035055;29;1250;-86
2021/11/15 01:03:40;;;;;;;;;;;;;;;;;;2027988;29;2059;-85
2021/11/15 01:04:42;;;;;;;;;;;;;;;;;;2026947;29;1400;-85
2021/11/15 01:05:48;;;;;;;;;;;;;;;;;;2034808;29;1230;-85
2021/11/15 01:06:50;;;;;;;;;;;;;;;;;;2042402;29;1754;-85
2021/11/15 01:07:51;;;;;;;;;;;;;;;;;;2027090;29;2020;-86
2021/11/15 01:08:53;;;;;;;;;;;;;;;;;;2026807;29;1183;-87
2021/11/15 01:09:54;;;;;;;;;;;;;;;;;;2027123;29;1236;-87
2021/11/15 01:10:56;;;;;;;;;;;;;;;;;;2027800;29;2272;-87
2021/11/15 01:11:57;;;;;;;;;;;;;;;;;;2027056;29;1264;-84
2021/11/15 01:12:59;;;;;;;;;;;;;;;;;;2026872;29;2080;-86
2021/11/15 01:14:01;;;;;;;;;;;;;;;;;;2019016;29;1233;-85
2021/11/15 01:15:03;;;;;;;;;;;;;;;;;;2019432;29;1373;-85
2021/11/15 01:16:07;;;;;;;;;;;;;;;;;;2028995;29;1985;-85
2021/11/15 01:17:08;;;;;;;;;;;;;;;;;;2042514;29;1241;-85
2021/11/15 01:18:09;;;;;;;;;;;;;;;;;;2039439;29;2022;-85
2021/11/15 01:19:12;;;;;;;;;;;;;;;;;;2034673;29;1309;-85
2021/11/15 01:20:14;;;;;;;;;;;;;;;;;;2034139;29;1247;-85
2021/11/15 01:21:18;;;;;;;;;;;;;;;;;;2018687;29;1919;-85
2021/11/15 01:22:18;;;;;;;;;;;;;;;;;;2019418;29;1219;-85
2021/11/15 01:23:20;;;;;;;;;;;;;;;;;;2027518;29;2072;-85
2021/11/15 01:24:21;;;;;;;;;;;;;;;;;;2034948;29;1758;-85
2021/11/15 01:25:23;;;;;;;;;;;;;;;;;;2034943;29;1353;-86
2021/11/15 01:26:24;;;;;;;;;;;;;;;;;;2023153;29;1879;-85
2021/11/15 01:27:26;;;;;;;;;;;;;;;;;;2026998;29;1242;-85
2021/11/15 01:28:27;;;;;;;;;;;;;;;;;;2027264;29;1193;-85
2021/11/15 01:29:29;;;;;;;;;;;;;;;;;;2026466;29;1313;-85
2021/11/15 01:30:30;;;;;;;;;;;;;;;;;;2027237;29;1306;-85
2021/11/15 01:31:31;;;;;;;;;;;;;;;;;;2027172;29;2058;-85
2021/11/15 01:32:33;;;;;;;;;;;;;;;;;;2027077;29;1266;-85
2021/11/15 01:33:35;;;;;;;;;;;;;;;;;;2034192;29;1254;-84
2021/11/15 01:34:37;;;;;;;;;;;;;;;;;;2034647;29;1243;-85
2021/11/15 01:35:38;;;;;;;;;;;;;;;;;;2026976;29;1345;-85
2021/11/15 01:36:40;;;;;;;;;;;;;;;;;;2026722;29;1980;-85
2021/11/15 01:37:43;;;;;;;;;;;;;;;;;;2026769;29;1568;-84
2021/11/15 01:38:44;;;;;;;;;;;;;;;;;;2027757;29;1411;-85
2021/11/15 01:39:46;;;;;;;;;;;;;;;;;;2034712;29;1455;-85
2021/11/15 01:40:47;;;;;;;;;;;;;;;;;;2018803;29;1358;-85
2021/11/15 01:41:49;;;;;;;;;;;;;;;;;;2027218;29;2037;-85
2021/11/15 01:42:50;;;;;;;;;;;;;;;;;;2035637;29;2095;-85
2021/11/15 01:43:52;;;;;;;;;;;;;;;;;;2034543;29;1222;-85
2021/11/15 01:44:53;;;;;;;;;;;;;;;;;;2034535;29;1237;-84
2021/11/15 01:45:55;;;;;;;;;;;;;;;;;;2027024;29;2022;-86
2021/11/15 01:46:56;;;;;;;;;;;;;;;;;;2042854;29;1304;-84
2021/11/15 01:47:58;;;;;;;;;;;;;;;;;;2042215;29;1353;-86
2021/11/15 01:49:00;;;;;;;;;;;;;;;;;;2026902;29;1198;-85
2021/11/15 01:50:02;;;;;;;;;;;;;;;;;;2027069;29;1210;-86
2021/11/15 01:51:02;;;;;;;;;;;;;;;;;;2032754;29;1851;-85
2021/11/15 01:52:06;;;;;;;;;;;;;;;;;;2034830;29;1420;-85
2021/11/15 01:53:09;;;;;;;;;;;;;;;;;;2034236;29;1249;-85
2021/11/15 01:54:10;;;;;;;;;;;;;;;;;;2027324;29;1441;-86
2021/11/15 01:55:11;;;;;;;;;;;;;;;;;;2033997;29;1286;-85
2021/11/15 01:56:13;;;;;;;;;;;;;;;;;;2034806;29;1905;-85
2021/11/15 01:57:14;;;;;;;;;;;;;;;;;;2026729;29;1437;-85
2021/11/15 01:58:17;;;;;;;;;;;;;;;;;;2019624;29;2152;-85
2021/11/15 01:59:18;;;;;;;;;;;;;;;;;;2026571;29;1266;-86
2021/11/15 02:00:21;;;;;;;;;;;;;;;;;;2034653;29;1220;-85
2021/11/15 02:01:23;;;;;;;;;;;;;;;;;;2023068;29;2058;-85
2021/11/15 02:02:26;;;;;;;;;;;;;;;;;;2026681;29;1251;-85
2021/11/15 02:03:28;;;;;;;;;;;;;;;;;;2016277;29;2044;-85
2021/11/15 02:04:30;;;;;;;;;;;;;;;;;;2019214;29;1221;-85
2021/11/15 02:05:31;;;;;;;;;;;;;;;;;;2026681;29;1389;-85
2021/11/15 02:06:33;;;;;;;;;;;;;;;;;;2032110;29;1882;-85
2021/11/15 02:07:35;;;;;;;;;;;;;;;;;;2034320;29;1317;-84
2021/11/15 02:08:37;;;;;;;;;;;;;;;;;;2034346;29;906;-85
2021/11/15 02:09:38;;;;;;;;;;;;;;;;;;2034416;29;1240;-84
2021/11/15 02:10:40;;;;;;;;;;;;;;;;;;2034763;29;1340;-84
2021/11/15 02:11:41;;;;;;;;;;;;;;;;;;2035524;29;1785;-84
2021/11/15 02:12:43;;;;;;;;;;;;;;;;;;2034934;29;1326;-84
2021/11/15 02:13:43;;;;;;;;;;;;;;;;;;2027072;29;1063;-87
2021/11/15 02:14:45;;;;;;;;;;;;;;;;;;2018969;29;1277;-87
2021/11/15 02:15:47;;;;;;;;;;;;;;;;;;2018804;29;1164;-87
2021/11/15 02:16:49;;;;;;;;;;;;;;;;;;2035041;29;1929;-84
2021/11/15 02:17:50;;;;;;;;;;;;;;;;;;2034329;29;1229;-84
2021/11/15 02:18:53;;;;;;;;;;;;;;;;;;2026880;29;1439;-85
2021/11/15 02:19:55;;;;;;;;;;;;;;;;;;2026667;29;1424;-85
2021/11/15 02:20:59;;;;;;;;;;;;;;;;;;2027383;29;1957;-85
2021/11/15 02:22:00;;;;;;;;;;;;;;;;;;2034775;29;1360;-85
2021/11/15 02:23:02;;;;;;;;;;;;;;;;;;2032332;29;1951;-85
2021/11/15 02:24:03;;;;;;;;;;;;;;;;;;2018902;29;1204;-84
2021/11/15 02:25:06;;;;;;;;;;;;;;;;;;2026813;29;1333;-84
2021/11/15 02:26:08;;;;;;;;;;;;;;;;;;2026816;29;1918;-82
2021/11/15 02:27:10;;;;;;;;;;;;;;;;;;2026856;29;1344;-84
2021/11/15 02:28:10;;;;;;;;;;;;;;;;;;2034424;29;1329;-84
2021/11/15 02:29:12;;;;;;;;;;;;;;;;;;2026478;29;1147;-84
2021/11/15 02:30:14;;;;;;;;;;;;;;;;;;2034065;29;1366;-84
2021/11/15 02:31:20;;;;;;;;;;;;;;;;;;2034315;29;1214;-83
2021/11/15 02:32:21;;;;;;;;;;;;;;;;;;2028312;29;803;-84
2021/11/15 02:33:23;;;;;;;;;;;;;;;;;;2032598;29;2122;-84
2021/11/15 02:34:24;;;;;;;;;;;;;;;;;;2028360;29;1290;-84
2021/11/15 02:35:26;;;;;;;;;;;;;;;;;;2036292;29;1254;-85
2021/11/15 02:36:28;;;;;;;;;;;;;;;;;;2038963;29;1840;-85
2021/11/15 02:37:30;;;;;;;;;;;;;;;;;;2020041;29;1397;-85
2021/11/15 02:38:31;;;;;;;;;;;;;;;;;;2026335;29;1421;-85
2021/11/15 02:39:33;;;;;;;;;;;;;;;;;;2027830;29;1234;-85
2021/11/15 02:40:34;;;;;;;;;;;;;;;;;;2020557;29;1309;-85
2021/11/15 02:41:36;;;;;;;;;;;;;;;;;;2028226;29;1239;-85
2021/11/15 02:42:37;;;;;;;;;;;;;;;;;;2036030;29;1371;-86
2021/11/15 02:43:39;;;;;;;;;;;;;;;;;;2035886;29;1239;-86
2021/11/15 02:44:39;;;;;;;;;;;;;;;;;;2035179;29;1338;-86
2021/11/15 02:45:41;;;;;;;;;;;;;;;;;;2035817;29;1199;-85
2021/11/15 02:46:42;;;;;;;;;;;;;;;;;;2027976;29;1897;-84
2021/11/15 02:47:45;;;;;;;;;;;;;;;;;;2028058;29;1230;-85
2021/11/15 02:48:45;;;;;;;;;;;;;;;;;;2036095;29;1200;-86
2021/11/15 02:49:48;;;;;;;;;;;;;;;;;;2028112;29;1356;-86
2021/11/15 02:50:49;;;;;;;;;;;;;;;;;;2035866;29;1444;-86
2021/11/15 02:51:52;;;;;;;;;;;;;;;;;;2035986;29;1376;-85
2021/11/15 02:52:55;;;;;;;;;;;;;;;;;;2035771;29;2113;-86
2021/11/15 02:53:56;;;;;;;;;;;;;;;;;;2035685;29;814;-86
2021/11/15 02:54:57;;;;;;;;;;;;;;;;;;2027955;29;1188;-86
2021/11/15 02:55:59;;;;;;;;;;;;;;;;;;2036096;29;1226;-85
2021/11/15 02:57:00;;;;;;;;;;;;;;;;;;2035700;29;1915;-86
2021/11/15 02:58:04;;;;;;;;;;;;;;;;;;2027880;29;2076;-86
2021/11/15 02:59:05;;;;;;;;;;;;;;;;;;2028119;29;1079;-86
2021/11/15 03:00:15;;;;;;;;;;;;;;;;;;2035696;29;1284;-86
2021/11/15 03:01:18;;;;;;;;;;;;;;;;;;2035049;29;1904;-85
2021/11/15 03:02:21;;;;;;;;;;;;;;;;;;2028157;29;924;-86
2021/11/15 03:03:23;;;;;;;;;;;;;;;;;;2028471;29;1895;-85
2021/11/15 03:04:23;;;;;;;;;;;;;;;;;;2020472;29;1266;-85
2021/11/15 03:05:26;;;;;;;;;;;;;;;;;;2027676;29;1330;-85
2021/11/15 03:06:28;;;;;;;;;;;;;;;;;;2027868;29;1205;-85
2021/11/15 03:07:30;;;;;;;;;;;;;;;;;;2019700;29;1207;-86
2021/11/15 03:08:32;;;;;;;;;;;;;;;;;;2020783;29;2119;-85
2021/11/15 03:09:32;;;;;;;;;;;;;;;;;;2020327;29;1215;-86
2021/11/15 03:10:35;;;;;;;;;;;;;;;;;;2020423;29;1306;-85
2021/11/15 03:11:37;;;;;;;;;;;;;;;;;;2028933;29;1894;-85
2021/11/15 03:12:38;;;;;;;;;;;;;;;;;;2035552;29;1261;-85
2021/11/15 03:13:41;;;;;;;;;;;;;;;;;;2028327;29;1955;-85
2021/11/15 03:14:41;;;;;;;;;;;;;;;;;;2035416;29;1210;-85
2021/11/15 03:15:44;;;;;;;;;;;;;;;;;;2035695;29;1450;-85
2021/11/15 03:16:45;;;;;;;;;;;;;;;;;;2020627;29;1990;-85
2021/11/15 03:17:51;;;;;;;;;;;;;;;;;;2028050;29;2072;-87
2021/11/15 03:18:52;;;;;;;;;;;;;;;;;;2035334;29;1257;-87
2021/11/15 03:19:54;;;;;;;;;;;;;;;;;;2027599;29;1332;-86
2021/11/15 03:20:56;;;;;;;;;;;;;;;;;;2035895;29;1297;-87
2021/11/15 03:21:58;;;;;;;;;;;;;;;;;;2027703;29;1225;-87
2021/11/15 03:23:04;;;;;;;;;;;;;;;;;;2022314;29;1932;-87
2021/11/15 03:24:06;;;;;;;;;;;;;;;;;;2027918;29;1214;-87
2021/11/15 03:25:07;;;;;;;;;;;;;;;;;;2028016;29;1289;-87
2021/11/15 03:26:11;;;;;;;;;;;;;;;;;;2027141;29;1915;-87
2021/11/15 03:27:11;;;;;;;;;;;;;;;;;;2035417;29;1307;-87
2021/11/15 03:28:14;;;;;;;;;;;;;;;;;;2040368;29;1966;-87
2021/11/15 03:29:15;;;;;;;;;;;;;;;;;;2027526;29;1391;-87
2021/11/15 03:30:17;;;;;;;;;;;;;;;;;;2027522;29;1333;-87
2021/11/15 03:31:19;;;;;;;;;;;;;;;;;;2019837;29;1342;-87
2021/11/15 03:32:24;;;;;;;;;;;;;;;;;;2028326;29;1420;-87
2021/11/15 03:33:26;;;;;;;;;;;;;;;;;;2040363;29;2156;-88
2021/11/15 03:34:28;;;;;;;;;;;;;;;;;;2043312;29;1322;-88
2021/11/15 03:35:29;;;;;;;;;;;;;;;;;;2043602;29;1296;-86
2021/11/15 03:36:31;;;;;;;;;;;;;;;;;;2035390;29;1866;-85
2021/11/15 03:37:32;;;;;;;;;;;;;;;;;;2035531;29;2034;-86
2021/11/15 03:38:35;;;;;;;;;;;;;;;;;;2029671;29;2118;-85
2021/11/15 03:39:35;;;;;;;;;;;;;;;;;;2020022;29;1270;-86
2021/11/15 03:40:42;;;;;;;;;;;;;;;;;;2027694;29;1235;-85
2021/11/15 03:41:44;;;;;;;;;;;;;;;;;;2035059;29;2048;-86
2021/11/15 03:42:46;;;;;;;;;;;;;;;;;;2027659;29;2032;-86
2021/11/15 03:43:47;;;;;;;;;;;;;;;;;;2034337;29;1396;-87
2021/11/15 03:44:48;;;;;;;;;;;;;;;;;;2043219;29;1197;-87
2021/11/15 03:45:50;;;;;;;;;;;;;;;;;;2035276;29;1349;-87
2021/11/15 03:46:51;;;;;;;;;;;;;;;;;;2035578;29;1163;-87
2021/11/15 03:47:54;;;;;;;;;;;;;;;;;;2033258;29;1945;-87
2021/11/15 03:48:54;;;;;;;;;;;;;;;;;;2020151;29;1475;-87
2021/11/15 03:49:57;;;;;;;;;;;;;;;;;;2019834;29;1409;-87
2021/11/15 03:50:59;;;;;;;;;;;;;;;;;;2035992;29;1984;-89
2021/11/15 03:51:59;;;;;;;;;;;;;;;;;;2035550;29;1245;-87
2021/11/15 03:53:02;;;;;;;;;;;;;;;;;;2027555;29;1295;-87
2021/11/15 03:54:05;;;;;;;;;;;;;;;;;;2027710;29;1085;-90
2021/11/15 03:55:08;;;;;;;;;;;;;;;;;;2027633;29;1203;-87
2021/11/15 03:56:11;;;;;;;;;;;;;;;;;;2025767;29;1839;-86
2021/11/15 03:57:13;;;;;;;;;;;;;;;;;;2027701;29;1915;-87
2021/11/15 03:58:13;;;;;;;;;;;;;;;;;;2031822;29;2052;-86
2021/11/15 03:59:15;;;;;;;;;;;;;;;;;;2027489;29;1215;-87
2021/11/15 04:00:18;;;;;;;;;;;;;;;;;;2043191;29;1297;-86
2021/11/15 04:01:25;;;;;;;;;;;;;;;;;;2039292;29;1873;-87
2021/11/15 04:02:29;;;;;;;;;;;;;;;;;;2028001;29;1504;-86
2021/11/15 04:03:32;;;;;;;;;;;;;;;;;;2028185;29;2055;-86
2021/11/15 04:04:49;;;;;;;;;;;;;;;;;;2027526;29;858;-84
2021/11/15 04:05:56;;;;;;;;;;;;;;;;;;2027260;29;1332;-87
2021/11/15 04:06:57;;;;;;;;;;;;;;;;;;2035455;29;1296;-84
2021/11/15 04:08:00;;;;;;;;;;;;;;;;;;2029296;29;2024;-85
2021/11/15 04:09:06;;;;;;;;;;;;;;;;;;2027355;29;1199;-84
2021/11/15 04:10:12;;;;;;;;;;;;;;;;;;2035504;29;803;-85
2021/11/15 04:11:12;;;;;;;;;;;;;;;;;;2032461;29;1968;-84
2021/11/15 04:12:14;;;;;;;;;;;;;;;;;;2027491;29;1226;-87
2021/11/15 04:13:17;;;;;;;;;;;;;;;;;;2026444;29;2170;-87
2021/11/15 04:14:18;;;;;;;;;;;;;;;;;;2035349;29;1215;-87
2021/11/15 04:15:19;;;;;;;;;;;;;;;;;;2034774;29;1178;-86
2021/11/15 04:16:21;;;;;;;;;;;;;;;;;;2035553;29;1905;-87
2021/11/15 04:17:23;;;;;;;;;;;;;;;;;;2035367;29;1973;-86
2021/11/15 04:18:26;;;;;;;;;;;;;;;;;;2027278;29;1817;-86
2021/11/15 04:19:27;;;;;;;;;;;;;;;;;;2027453;29;1416;-85
2021/11/15 04:20:30;;;;;;;;;;;;;;;;;;2019641;29;1361;-86
2021/11/15 04:21:32;;;;;;;;;;;;;;;;;;2020055;29;2051;-85
2021/11/15 04:22:35;;;;;;;;;;;;;;;;;;2035008;29;1384;-85
2021/11/15 04:23:35;;;;;;;;;;;;;;;;;;2041713;29;2126;-85
2021/11/15 04:24:38;;;;;;;;;;;;;;;;;;2035411;29;1394;-85
2021/11/15 04:25:40;;;;;;;;;;;;;;;;;;2042838;29;1332;-85
2021/11/15 04:26:42;;;;;;;;;;;;;;;;;;2028339;29;1977;-85
2021/11/15 04:27:43;;;;;;;;;;;;;;;;;;2019714;29;1373;-85
2021/11/15 04:28:45;;;;;;;;;;;;;;;;;;2035589;29;1325;-84
2021/11/15 04:29:45;;;;;;;;;;;;;;;;;;2034953;29;1206;-87
2021/11/15 04:30:47;;;;;;;;;;;;;;;;;;2042715;29;1441;-85
2021/11/15 04:31:48;;;;;;;;;;;;;;;;;;2034479;29;1854;-85
2021/11/15 04:32:50;;;;;;;;;;;;;;;;;;2027253;29;2043;-85
2021/11/15 04:33:51;;;;;;;;;;;;;;;;;;2035256;29;1320;-85
2021/11/15 04:34:53;;;;;;;;;;;;;;;;;;2035011;29;1256;-84
2021/11/15 04:35:54;;;;;;;;;;;;;;;;;;2028084;29;1878;-86
2021/11/15 04:36:56;;;;;;;;;;;;;;;;;;2035053;29;1206;-85
2021/11/15 04:37:57;;;;;;;;;;;;;;;;;;2033901;29;2159;-85
2021/11/15 04:38:59;;;;;;;;;;;;;;;;;;2027115;29;843;-86
2021/11/15 04:40:00;;;;;;;;;;;;;;;;;;2027360;29;1239;-85
2021/11/15 04:41:03;;;;;;;;;;;;;;;;;;2035495;29;2067;-87
2021/11/15 04:42:04;;;;;;;;;;;;;;;;;;2035050;29;810;-85
2021/11/15 04:43:06;;;;;;;;;;;;;;;;;;2024827;29;1927;-85
2021/11/15 04:44:06;;;;;;;;;;;;;;;;;;2027171;29;1345;-85
2021/11/15 04:45:09;;;;;;;;;;;;;;;;;;2034720;29;1203;-85
2021/11/15 04:46:11;;;;;;;;;;;;;;;;;;2035439;29;1881;-85
2021/11/15 04:47:12;;;;;;;;;;;;;;;;;;2034956;29;1282;-85
2021/11/15 04:48:13;;;;;;;;;;;;;;;;;;2027795;29;2056;-85
2021/11/15 04:49:14;;;;;;;;;;;;;;;;;;2034899;29;1218;-85
2021/11/15 04:50:17;;;;;;;;;;;;;;;;;;2035064;29;1309;-85
2021/11/15 04:51:19;;;;;;;;;;;;;;;;;;2027375;29;1870;-85
2021/11/15 04:52:20;;;;;;;;;;;;;;;;;;2035178;29;1167;-87
2021/11/15 04:53:22;;;;;;;;;;;;;;;;;;2034659;29;2054;-87
2021/11/15 04:54:23;;;;;;;;;;;;;;;;;;2035414;29;1289;-86
2021/11/15 04:55:25;;;;;;;;;;;;;;;;;;2026417;29;1211;-86
2021/11/15 04:56:27;;;;;;;;;;;;;;;;;;2024072;29;1896;-86
2021/11/15 04:57:29;;;;;;;;;;;;;;;;;;2034635;29;1986;-86
2021/11/15 04:58:30;;;;;;;;;;;;;;;;;;2029350;29;1907;-86
2021/11/15 04:59:31;;;;;;;;;;;;;;;;;;2019606;29;1576;-85
2021/11/15 05:00:33;;;;;;;;;;;;;;;;;;2034509;29;1355;-85
2021/11/15 05:01:35;;;;;;;;;;;;;;;;;;2035187;29;1314;-85
2021/11/15 05:02:36;;;;;;;;;;;;;;;;;;2034899;29;1237;-85
2021/11/15 05:03:38;;;;;;;;;;;;;;;;;;2034793;29;2086;-85
2021/11/15 05:04:39;;;;;;;;;;;;;;;;;;2034666;29;1335;-85
2021/11/15 05:05:42;;;;;;;;;;;;;;;;;;2034892;29;1399;-85
2021/11/15 05:06:43;;;;;;;;;;;;;;;;;;2026983;29;782;-87
2021/11/15 05:07:45;;;;;;;;;;;;;;;;;;2026841;29;2098;-86
2021/11/15 05:08:47;;;;;;;;;;;;;;;;;;2034974;29;1417;-84
2021/11/15 05:09:47;;;;;;;;;;;;;;;;;;2042864;29;1396;-85
2021/11/15 05:10:49;;;;;;;;;;;;;;;;;;2042151;29;1240;-85
2021/11/15 05:11:51;;;;;;;;;;;;;;;;;;2019216;29;1983;-85
2021/11/15 05:12:54;;;;;;;;;;;;;;;;;;2019650;29;2104;-85
2021/11/15 05:13:54;;;;;;;;;;;;;;;;;;2026881;29;1306;-85
2021/11/15 05:14:56;;;;;;;;;;;;;;;;;;2019319;29;1492;-84
2021/11/15 05:15:57;;;;;;;;;;;;;;;;;;2019637;29;1844;-86
2021/11/15 05:16:59;;;;;;;;;;;;;;;;;;2026900;29;1382;-86
2021/11/15 05:18:00;;;;;;;;;;;;;;;;;;2026960;29;1932;-85
2021/11/15 05:19:02;;;;;;;;;;;;;;;;;;2026723;29;1353;-86
2021/11/15 05:20:03;;;;;;;;;;;;;;;;;;2027387;29;1221;-86
2021/11/15 05:21:05;;;;;;;;;;;;;;;;;;2026673;29;1855;-85
2021/11/15 05:22:05;;;;;;;;;;;;;;;;;;2027264;29;897;-85
2021/11/15 05:23:07;;;;;;;;;;;;;;;;;;2026971;29;1294;-85
2021/11/15 05:24:08;;;;;;;;;;;;;;;;;;2035199;29;1198;-86
2021/11/15 05:25:10;;;;;;;;;;;;;;;;;;2034239;29;1336;-87
2021/11/15 05:26:11;;;;;;;;;;;;;;;;;;2024994;29;1637;-81
2021/11/15 05:27:15;;;;;;;;;;;;;;;;;;2034262;29;1838;-81
2021/11/15 05:28:15;;;;;;;;;;;;;;;;;;2040026;29;1698;-82
2021/11/15 05:29:17;;;;;;;;;;;;;;;;;;2034365;29;1618;-82
2021/11/15 05:30:19;;;;;;;;;;;;;;;;;;2026588;29;1414;-83
2021/11/15 05:31:20;;;;;;;;;;;;;;;;;;2033828;29;1930;-82
2021/11/15 05:32:21;;;;;;;;;;;;;;;;;;2034510;29;1281;-82
2021/11/15 05:33:24;;;;;;;;;;;;;;;;;;2034210;29;1294;-82
2021/11/15 05:34:25;;;;;;;;;;;;;;;;;;2034293;29;1254;-82
2021/11/15 05:35:27;;;;;;;;;;;;;;;;;;2042209;29;1403;-83
2021/11/15 05:36:27;;;;;;;;;;;;;;;;;;2037809;29;1936;-82
2021/11/15 05:37:29;;;;;;;;;;;;;;;;;;2026640;29;1321;-82
2021/11/15 05:38:30;;;;;;;;;;;;;;;;;;2027267;29;2087;-82
2021/11/15 05:39:32;;;;;;;;;;;;;;;;;;2026368;29;1433;-82
2021/11/15 05:40:33;;;;;;;;;;;;;;;;;;2034072;29;1293;-82
2021/11/15 05:41:34;;;;;;;;;;;;;;;;;;2045099;29;1876;-82
2021/11/15 05:42:37;;;;;;;;;;;;;;;;;;2050311;29;1468;-79
2021/11/15 05:43:38;;;;;;;;;;;;;;;;;;2042155;29;1373;-81
2021/11/15 05:44:39;;;;;;;;;;;;;;;;;;2034725;29;1860;-81
2021/11/15 05:45:41;;;;;;;;;;;;;;;;;;2034048;29;1324;-80
2021/11/15 05:46:41;;;;;;;;;;;;;;;;;;2020525;29;1852;-79
2021/11/15 05:47:43;;;;;;;;;;;;;;;;;;2026691;29;1749;-80
2021/11/15 05:48:44;;;;;;;;;;;;;;;;;;2032208;29;1566;-81
2021/11/15 05:49:46;;;;;;;;;;;;;;;;;;2034014;29;1724;-81
2021/11/15 05:50:47;;;;;;;;;;;;;;;;;;2034581;29;1698;-81
2021/11/15 05:51:48;;;;;;;;;;;;;;;;;;2032703;29;1953;-81
2021/11/15 05:52:49;;;;;;;;;;;;;;;;;;2025813;29;1921;-81
2021/11/15 05:53:51;;;;;;;;;;;;;;;;;;2024297;29;1354;-81
2021/11/15 05:54:52;;;;;;;;;;;;;;;;;;2026591;29;1596;-81
2021/11/15 05:55:54;;;;;;;;;;;;;;;;;;2033869;29;1637;-81
2021/11/15 05:56:54;;;;;;;;;;;;;;;;;;2034516;29;1636;-80
2021/11/15 05:57:58;;;;;;;;;;;;;;;;;;2033958;29;2031;-81
2021/11/15 05:58:58;;;;;;;;;;;;;;;;;;2041979;29;1302;-81
2021/11/15 06:00:00;;;;;;;;;;;;;;;;;;2042091;29;1538;-81
2021/11/15 06:01:03;;;;;;;;;;;;;;;;;;2031853;29;1695;-84
2021/11/15 06:02:05;;;;;;;;;;;;;;;;;;2025968;29;1875;-81
2021/11/15 06:03:05;;;;;;;;;;;;;;;;;;2026284;29;1738;-81
2021/11/15 06:04:07;;;;;;;;;;;;;;;;;;2026518;29;1589;-81
2021/11/15 06:05:09;;;;;;;;;;;;;;;;;;2026281;29;1511;-81
2021/11/15 06:06:11;;;;;;;;;;;;;;;;;;2026275;29;1637;-81
2021/11/15 06:07:12;;;;;;;;;;;;;;;;;;2027401;29;1565;-81
2021/11/15 06:08:13;;;;;;;;;;;;;;;;;;2035393;29;1805;-82
2021/11/15 06:09:14;;;;;;;;;;;;;;;;;;2043310;29;1353;-81
2021/11/15 06:10:16;;;;;;;;;;;;;;;;;;2043659;29;1574;-80
2021/11/15 06:11:19;;;;;;;;;;;;;;;;;;2045828;29;1687;-81
2021/11/15 06:12:20;;;;;;;;;;;;;;;;;;2035844;29;1667;-81
2021/11/15 06:13:23;;;;;;;;;;;;;;;;;;2034438;29;1874;-81
2021/11/15 06:14:24;;;;;;;;;;;;;;;;;;2027755;29;1650;-81
2021/11/15 06:15:26;;;;;;;;;;;;;;;;;;2034978;29;1749;-81
2021/11/15 06:16:26;;;;;;;;;;;;;;;;;;2035719;29;1689;-80
2021/11/15 06:17:28;;;;;;;;;;;;;;;;;;2035359;29;1671;-81
2021/11/15 06:18:30;;;;;;;;;;;;;;;;;;2043581;29;1949;-80
2021/11/15 06:19:31;;;;;;;;;;;;;;;;;;2043490;29;1397;-81
2021/11/15 06:20:32;;;;;;;;;;;;;;;;;;2035768;29;1556;-81
2021/11/15 06:21:33;;;;;;;;;;;;;;;;;;2033489;29;1901;-80
2021/11/15 06:22:35;;;;;;;;;;;;;;;;;;2043334;29;1610;-83
2021/11/15 06:23:36;;;;;;;;;;;;;;;;;;2026738;29;1877;-80
2021/11/15 06:24:40;;;;;;;;;;;;;;;;;;2027907;29;1715;-80
2021/11/15 06:25:41;;;;;;;;;;;;;;;;;;2027781;29;1633;-80
2021/11/15 06:26:43;;;;;;;;;;;;;;;;;;2020082;29;1667;-80
2021/11/15 06:27:44;;;;;;;;;;;;;;;;;;2035381;29;1778;-83
2021/11/15 06:28:49;;;;;;;;;;;;;;;;;;2042854;29;1571;-80
2021/11/15 06:29:49;;;;;;;;;;;;;;;;;;2035704;29;1306;-80
2021/11/15 06:30:51;;;;;;;;;;;;;;;;;;2035142;29;1566;-82
2021/11/15 06:31:52;;;;;;;;;;;;;;;;;;2027420;29;1698;-80
2021/11/15 06:32:53;;;;;;;;;;;;;;;;;;2027885;29;1755;-80
2021/11/15 06:33:54;;;;;;;;;;;;;;;;;;2027617;29;1228;-80
2021/11/15 06:34:57;;;;;;;;;;;;;;;;;;2027848;29;1675;-80
2021/11/15 06:35:59;;;;;;;;;;;;;;;;;;2019186;29;1639;-81
2021/11/15 06:37:00;;;;;;;;;;;;;;;;;;2034182;29;1509;-80
2021/11/15 06:38:01;;;;;;;;;;;;;;;;;;2035028;29;1967;-80
2021/11/15 06:39:03;;;;;;;;;;;;;;;;;;2035498;29;1572;-80
2021/11/15 06:40:06;;;;;;;;;;;;;;;;;;2035596;29;1334;-79
2021/11/15 06:41:07;;;;;;;;;;;;;;;;;;2035849;29;1540;-80
2021/11/15 06:42:09;;;;;;;;;;;;;;;;;;2035628;29;1569;-80
2021/11/15 06:43:10;;;;;;;;;;;;;;;;;;2034857;29;1698;-79
2021/11/15 06:44:13;;;;;;;;;;;;;;;;;;2040845;29;1561;-79
2021/11/15 06:45:14;;;;;;;;;;;;;;;;;;2043077;29;1791;-80
2021/11/15 06:46:16;;;;;;;;;;;;;;;;;;2033024;29;1668;-80
2021/11/15 06:47:16;;;;;;;;;;;;;;;;;;2027641;29;1694;-80
2021/11/15 06:48:18;;;;;;;;;;;;;;;;;;2027218;29;1763;-80
2021/11/15 06:49:19;;;;;;;;;;;;;;;;;;2027638;29;1715;-80
2021/11/15 06:50:22;;;;;;;;;;;;;;;;;;2043072;29;1462;-80
2021/11/15 06:51:24;;;;;;;;;;;;;;;;;;2042343;29;1751;-80
2021/11/15 06:52:25;;;;;;;;;;;;;;;;;;2035307;29;1348;-80
2021/11/15 06:53:26;;;;;;;;;;;;;;;;;;2027151;29;1858;-80
2021/11/15 06:54:28;;;;;;;;;;;;;;;;;;2035504;29;1598;-80
2021/11/15 06:55:31;;;;;;;;;;;;;;;;;;2043230;29;1560;-80
2021/11/15 06:56:32;;;;;;;;;;;;;;;;;;2025302;29;1494;-80
2021/11/15 06:57:34;;;;;;;;;;;;;;;;;;2027001;29;1563;-80
2021/11/15 06:58:36;;;;;;;;;;;;;;;;;;2042382;29;2098;-80
2021/11/15 06:59:38;;;;;;;;;;;;;;;;;;2034950;29;1445;-80
2021/11/15 07:00:40;;;;;;;;;;;;;;;;;;2035292;29;1789;-81
2021/11/15 07:01:41;;;;;;;;;;;;;;;;;;2042929;29;1854;-80
2021/11/15 07:02:42;;;;;;;;;;;;;;;;;;2043296;29;1584;-80
2021/11/15 07:03:43;;;;;;;;;;;;;;;;;;2042634;29;2218;-80
2021/11/15 07:04:45;;;;;;;;;;;;;;;;;;2042672;29;1747;-81
2021/11/15 07:05:48;;;;;;;;;;;;;;;;;;2043204;29;1382;-80
2021/11/15 07:06:48;;;;;;;;;;;;;;;;;;2035018;29;1553;-80
2021/11/15 07:07:51;;;;;;;;;;;;;;;;;;2026521;29;1824;-80
2021/11/15 07:08:52;;;;;;;;;;;;;;;;;;2027943;29;1240;-80
2021/11/15 07:09:53;;;;;;;;;;;;;;;;;;2035233;29;1652;-81